Hitachimaru — JD2063 — position and weather

sailwx.info

Track history (hours):
 
Tides and Currents Weather Stations Pressure Air Temp Water Temp Dewpoint Dewpoint Depression Visibility Wind Speed Wind Dir Waves Ship Positions

Hitachimaru

Last reported at 2017-Mar-27 04:33 UTC. Time now 2017-Mar-27 04:51 UTC.
Position N 34°31' E 135°24'.

Length 83 m; draft 4.7 m.

Type: Cargo ship. MMSI: 431301756.

Date/timePositionNaut miles runAvg speedWind from/ knotsBaromVisibWave heightAir tempDewpointWater temp
2017-Mar-27 04:33N 34°31' E 135°24'0 0.0
2017-Mar-26 19:20N 34°31' E 135°24'0 0.0
2017-Mar-25 18:19N 34°31' E 135°24'0 0.0
2017-Mar-25 15:19N 34°31' E 135°24'0 0.0
2017-Mar-25 09:31N 34°31' E 135°24'2 0.3
2017-Mar-25 03:33N 34°32' E 135°22'1 0.3
2017-Mar-24 23:25N 34°33' E 135°21'0 0.0
2017-Mar-24 21:19N 34°33' E 135°21'0 0.0
2017-Mar-24 20:25N 34°33' E 135°21'0 0.0
2017-Mar-24 19:31N 34°33' E 135°21'0 0.0
2017-Mar-24 18:31N 34°33' E 135°21'0 0.0
2017-Mar-24 17:31N 34°33' E 135°21'0 0.0
2017-Mar-24 16:31N 34°33' E 135°21'0 0.0
2017-Mar-24 14:25N 34°32' E 135°21'0 0.0
2017-Mar-24 13:31N 34°32' E 135°21'0 0.0
2017-Mar-24 12:31N 34°32' E 135°21'0 0.0
2017-Mar-24 11:31N 34°32' E 135°21'0 0.0
2017-Mar-24 10:25N 34°32' E 135°21'7 8.3
2017-Mar-24 09:33N 34°29' E 135°14'1110.9
2017-Mar-24 08:31N 34°21' E 135°03'1010.4
2017-Mar-24 07:34N 34°12' E 134°60'  
2017-Mar-20 09:32N 34°58' E 139°43'1111.7
2017-Mar-20 08:34N 35°09' E 139°45'1111.5
2017-Mar-20 07:34N 35°20' E 139°42'4 4.1
2017-Mar-20 06:33N 35°23' E 139°38'0 0.0
2017-Mar-20 05:33N 35°23' E 139°38'0 0.0
2017-Mar-20 04:33N 35°23' E 139°38'0 0.0
2017-Mar-20 03:33N 35°23' E 139°38'0 0.0
2017-Mar-20 02:33N 35°23' E 139°38'0 0.0
2017-Mar-20 01:33N 35°23' E 139°38'0 0.0
2017-Mar-20 00:33N 35°23' E 139°38'0 0.0
2017-Mar-19 23:33N 35°23' E 139°38'0 0.4
2017-Mar-19 22:33N 35°23' E 139°39'10 9.9
2017-Mar-19 21:34N 35°16' E 139°46'1110.6
2017-Mar-19 20:33N 35°05' E 139°44'1110.6
2017-Mar-19 19:33N 34°57' E 139°36'233 8.9
2017-Mar-18 17:23N 34°07' E 134°60'1910.3
2017-Mar-18 15:30N 34°26' E 135°05'1111.4
2017-Mar-18 14:33N 34°32' E 135°16'9 9.4
2017-Mar-18 13:34N 34°35' E 135°27'1 0.3
2017-Mar-18 11:08N 34°34' E 135°27'1 1.2
2017-Mar-18 10:33N 34°35' E 135°27'0 0.0
2017-Mar-18 01:07N 34°35' E 135°27'1 0.1
2017-Mar-17 08:19N 34°34' E 135°27'1 1.3
2017-Mar-17 07:33N 34°35' E 135°27'0 0.0
2017-Mar-17 06:33N 34°35' E 135°27'0 0.0
2017-Mar-17 05:27N 34°35' E 135°27'  
Track history (hours):
 
Tides and Currents Weather Stations Pressure Air Temp Water Temp Dewpoint Dewpoint Depression Visibility Wind Speed Wind Dir Waves Ship Positions

Hitachimaru

Last reported at 2017-Mar-27 04:33 UTC. Time now 2017-Mar-27 04:51 UTC.
Position N 34°31' E 135°24'.

Length 83 m; draft 4.7 m.

Type: Cargo ship. MMSI: 431301756.

Date/timePositionNaut miles runAvg speedWind from/ knotsBaromVisibWave heightAir tempDewpointWater temp
2017-Mar-27 04:33N 34°31' E 135°24'0 0.0
2017-Mar-26 19:20N 34°31' E 135°24'0 0.0
2017-Mar-25 18:19N 34°31' E 135°24'0 0.0
2017-Mar-25 15:19N 34°31' E 135°24'0 0.0
2017-Mar-25 09:31N 34°31' E 135°24'2 0.3
2017-Mar-25 03:33N 34°32' E 135°22'1 0.3
2017-Mar-24 23:25N 34°33' E 135°21'0 0.0
2017-Mar-24 21:19N 34°33' E 135°21'0 0.0
2017-Mar-24 20:25N 34°33' E 135°21'0 0.0
2017-Mar-24 19:31N 34°33' E 135°21'0 0.0
2017-Mar-24 18:31N 34°33' E 135°21'0 0.0
2017-Mar-24 17:31N 34°33' E 135°21'0 0.0
2017-Mar-24 16:31N 34°33' E 135°21'0 0.0
2017-Mar-24 14:25N 34°32' E 135°21'0 0.0
2017-Mar-24 13:31N 34°32' E 135°21'0 0.0
2017-Mar-24 12:31N 34°32' E 135°21'0 0.0
2017-Mar-24 11:31N 34°32' E 135°21'0 0.0
2017-Mar-24 10:25N 34°32' E 135°21'7 8.3
2017-Mar-24 09:33N 34°29' E 135°14'1110.9
2017-Mar-24 08:31N 34°21' E 135°03'1010.4
2017-Mar-24 07:34N 34°12' E 134°60'  
2017-Mar-20 09:32N 34°58' E 139°43'1111.7
2017-Mar-20 08:34N 35°09' E 139°45'1111.5
2017-Mar-20 07:34N 35°20' E 139°42'4 4.1
2017-Mar-20 06:33N 35°23' E 139°38'0 0.0
2017-Mar-20 05:33N 35°23' E 139°38'0 0.0
2017-Mar-20 04:33N 35°23' E 139°38'0 0.0
2017-Mar-20 03:33N 35°23' E 139°38'0 0.0
2017-Mar-20 02:33N 35°23' E 139°38'0 0.0
2017-Mar-20 01:33N 35°23' E 139°38'0 0.0
2017-Mar-20 00:33N 35°23' E 139°38'0 0.0
2017-Mar-19 23:33N 35°23' E 139°38'0 0.4
2017-Mar-19 22:33N 35°23' E 139°39'10 9.9
2017-Mar-19 21:34N 35°16' E 139°46'1110.6
2017-Mar-19 20:33N 35°05' E 139°44'1110.6
2017-Mar-19 19:33N 34°57' E 139°36'233 8.9
2017-Mar-18 17:23N 34°07' E 134°60'1910.3
2017-Mar-18 15:30N 34°26' E 135°05'1111.4
2017-Mar-18 14:33N 34°32' E 135°16'9 9.4
2017-Mar-18 13:34N 34°35' E 135°27'1 0.3
2017-Mar-18 11:08N 34°34' E 135°27'1 1.2
2017-Mar-18 10:33N 34°35' E 135°27'0 0.0
2017-Mar-18 01:07N 34°35' E 135°27'1 0.1
2017-Mar-17 08:19N 34°34' E 135°27'1 1.3
2017-Mar-17 07:33N 34°35' E 135°27'0 0.0
2017-Mar-17 06:33N 34°35' E 135°27'0 0.0
2017-Mar-17 05:27N 34°35' E 135°27'  

Dump ship's entire track history